createdAt,value
2018-09-24T00:01:55.988Z,73.46
2018-09-24T00:04:25.669Z,71.54
2018-09-24T00:06:55.203Z,72.82
2018-09-24T00:09:24.754Z,71.20
2018-09-24T00:11:54.316Z,72.72
2018-09-24T00:14:23.863Z,72.55
2018-09-24T00:16:53.388Z,72.71
2018-09-24T00:19:22.946Z,72.52
2018-09-24T00:21:52.501Z,72.39
2018-09-24T00:24:22.094Z,71.87
2018-09-24T00:26:51.762Z,71.86
2018-09-24T00:29:21.299Z,72.41
2018-09-24T00:31:50.820Z,72.19
2018-09-24T00:34:20.405Z,72.67
2018-09-24T00:36:49.966Z,72.18
2018-09-24T00:39:19.478Z,72.83
2018-09-24T00:41:49.008Z,72.38
2018-09-24T00:44:18.526Z,72.49
2018-09-24T00:46:48.163Z,71.89
2018-09-24T00:49:17.712Z,71.84
2018-09-24T00:51:47.239Z,71.90
2018-09-24T00:54:16.787Z,71.66
2018-09-24T00:56:46.305Z,71.81
2018-09-24T00:59:15.819Z,72.33
2018-09-24T01:01:45.340Z,72.16
2018-09-24T01:04:14.875Z,70.91
2018-09-24T01:06:44.391Z,71.56
2018-09-24T01:09:13.948Z,70.78
2018-09-24T01:11:43.459Z,71.00
2018-09-24T01:14:13.028Z,71.42
2018-09-24T01:16:42.580Z,71.23
2018-09-24T01:19:12.127Z,72.56
2018-09-24T01:21:41.647Z,71.82
2018-09-24T01:24:11.198Z,72.73
2018-09-24T01:26:40.743Z,72.17
2018-09-24T01:29:10.426Z,73.51
2018-09-24T01:31:39.950Z,71.47
2018-09-24T01:34:09.451Z,71.65
2018-09-24T01:36:38.999Z,72.00
2018-09-24T01:39:08.935Z,72.12
2018-09-24T01:41:38.451Z,72.16
2018-09-24T01:44:08.256Z,72.29
2018-09-24T01:46:37.915Z,73.43
2018-09-24T01:49:07.463Z,73.60
2018-09-24T01:51:39.124Z,73.74
2018-09-24T01:54:08.639Z,73.92
2018-09-24T01:56:38.175Z,74.78
2018-09-24T01:59:07.692Z,74.85
2018-09-24T02:01:37.472Z,74.83
2018-09-24T02:04:07.011Z,74.06
2018-09-24T02:06:36.579Z,73.95
2018-09-24T02:09:06.639Z,74.53
2018-09-24T02:11:36.207Z,74.66
2018-09-24T02:14:05.764Z,75.92
2018-09-24T02:16:35.351Z,74.56
2018-09-24T02:19:04.941Z,75.04
2018-09-24T02:21:34.456Z,74.98
2018-09-24T02:24:05.480Z,75.41
2018-09-24T02:26:35.030Z,75.66
2018-09-24T02:29:04.563Z,75.05
2018-09-24T02:31:40.819Z,74.88
2018-09-24T02:34:11.375Z,74.45
2018-09-24T02:36:41.262Z,74.56
2018-09-24T02:39:11.997Z,74.65
2018-09-24T02:41:41.684Z,75.02
2018-09-24T02:44:11.218Z,74.28
2018-09-24T02:46:44.746Z,75.35
2018-09-24T02:49:14.343Z,74.98
2018-09-24T02:51:43.909Z,75.22
2018-09-24T02:54:13.643Z,74.15
2018-09-24T02:56:47.187Z,74.55
2018-09-24T02:59:16.759Z,74.23
2018-09-24T03:01:46.298Z,74.11
2018-09-24T03:04:15.871Z,74.12
2018-09-24T03:06:45.419Z,75.31
2018-09-24T03:09:17.935Z,74.63
2018-09-24T03:11:47.823Z,75.16
2018-09-24T03:14:25.675Z,75.11
2018-09-24T03:16:55.424Z,75.04
2018-09-24T03:19:25.446Z,75.21
2018-09-24T03:21:55.042Z,74.90
2018-09-24T03:24:24.585Z,75.07
2018-09-24T03:26:54.152Z,75.32
2018-09-24T03:29:25.327Z,74.92
2018-09-24T03:31:54.919Z,75.37
2018-09-24T03:34:24.765Z,76.01
2018-09-24T03:36:54.502Z,75.79
2018-09-24T03:39:24.047Z,75.81
2018-09-24T03:41:53.621Z,76.31
2018-09-24T03:44:23.296Z,76.45
2018-09-24T03:46:52.823Z,76.45
2018-09-24T03:49:22.352Z,76.20
2018-09-24T03:51:51.873Z,76.70
2018-09-24T03:54:21.404Z,76.25
2018-09-24T03:56:51.076Z,76.64
2018-09-24T03:59:20.620Z,76.63
2018-09-24T04:01:50.711Z,77.00
2018-09-24T04:04:25.539Z,77.54
2018-09-24T04:07:00.256Z,77.54
2018-09-24T04:09:34.868Z,77.03
2018-09-24T04:12:09.819Z,77.39
2018-09-24T04:14:44.650Z,77.06
2018-09-24T04:17:19.378Z,76.81
2018-09-24T04:19:54.301Z,77.22
2018-09-24T04:22:28.879Z,77.68
2018-09-24T04:25:03.581Z,77.24
2018-09-24T04:27:38.329Z,77.42
2018-09-24T04:30:13.441Z,77.49
2018-09-24T04:32:48.168Z,76.93
2018-09-24T04:35:23.120Z,77.60
2018-09-24T04:37:57.972Z,77.21
2018-09-24T04:40:33.154Z,77.17
2018-09-24T04:43:07.994Z,76.99
2018-09-24T04:45:42.752Z,77.85
2018-09-24T04:48:17.560Z,77.32
2018-09-24T04:50:52.375Z,77.66
2018-09-24T04:53:27.116Z,77.80
2018-09-24T04:56:01.795Z,77.77
2018-09-24T04:58:36.413Z,78.32
2018-09-24T05:01:11.640Z,78.34
2018-09-24T05:03:46.208Z,77.65
2018-09-24T05:06:21.215Z,78.35
2018-09-24T05:08:56.097Z,78.82
2018-09-24T05:11:30.849Z,78.46
2018-09-24T05:14:05.451Z,78.39
2018-09-24T05:16:40.223Z,78.77
2018-09-24T05:19:15.072Z,78.33
2018-09-24T05:21:49.912Z,79.12
2018-09-24T05:24:24.540Z,79.08
2018-09-24T05:26:59.538Z,79.12
2018-09-24T05:29:34.046Z,78.62
2018-09-24T05:32:08.856Z,78.88
2018-09-24T05:34:43.712Z,78.65
2018-09-24T05:37:18.543Z,78.82
2018-09-24T05:39:53.088Z,78.65
2018-09-24T05:42:27.689Z,78.85
2018-09-24T05:45:02.377Z,78.46
2018-09-24T05:47:37.012Z,79.23
2018-09-24T05:50:12.028Z,78.43
2018-09-24T05:52:46.667Z,78.94
2018-09-24T05:55:21.431Z,79.19
2018-09-24T05:57:56.346Z,79.41
2018-09-24T06:00:31.107Z,79.17
2018-09-24T06:03:05.683Z,78.67
2018-09-24T06:05:40.452Z,79.03
2018-09-24T06:08:15.168Z,79.63
2018-09-24T06:10:49.908Z,78.41
2018-09-24T06:13:24.552Z,77.67
2018-09-24T06:15:59.229Z,76.68
2018-09-24T06:18:34.032Z,76.01
2018-09-24T06:21:08.683Z,75.56
2018-09-24T06:23:43.426Z,75.15
2018-09-24T06:26:18.344Z,74.20
2018-09-24T06:28:52.963Z,74.38
2018-09-24T06:31:27.672Z,74.95
2018-09-24T06:34:02.331Z,75.06
2018-09-24T06:36:37.079Z,75.66
2018-09-24T06:39:14.019Z,75.56
2018-09-24T06:41:48.813Z,75.53
2018-09-24T06:44:23.522Z,75.93
2018-09-24T06:46:58.237Z,75.61
2018-09-24T06:49:33.117Z,76.00
2018-09-24T06:52:08.083Z,74.99
2018-09-24T06:54:42.595Z,75.67
2018-09-24T06:57:17.167Z,75.55
2018-09-24T06:59:51.884Z,75.82
2018-09-24T07:02:26.711Z,75.04
2018-09-24T07:05:01.334Z,75.52
2018-09-24T07:07:36.128Z,76.43
2018-09-24T07:10:11.047Z,75.11
2018-09-24T07:12:45.727Z,75.37
2018-09-24T07:15:20.478Z,73.15
2018-09-24T07:17:55.088Z,73.74
2018-09-24T07:20:29.890Z,70.87
2018-09-24T07:23:04.642Z,69.77
2018-09-24T07:25:39.526Z,69.02
2018-09-24T07:28:14.447Z,66.65
2018-09-24T07:30:49.292Z,66.58
2018-09-24T07:33:24.128Z,65.97
2018-09-24T07:35:58.946Z,66.16
2018-09-24T07:38:33.523Z,66.60
2018-09-24T07:41:08.340Z,65.95
2018-09-24T07:43:43.008Z,67.13
2018-09-24T07:46:17.830Z,65.84
2018-09-24T07:48:52.683Z,64.39
2018-09-24T07:51:27.283Z,62.75
2018-09-24T07:54:02.148Z,64.37
2018-09-24T07:56:37.110Z,64.43
2018-09-24T07:59:12.013Z,64.65
2018-09-24T08:01:47.180Z,63.08
2018-09-24T08:04:21.923Z,61.67
2018-09-24T08:06:56.697Z,61.18
2018-09-24T08:09:31.399Z,62.65
2018-09-24T08:12:06.047Z,61.00
2018-09-24T08:14:40.731Z,62.39
2018-09-24T08:17:15.661Z,62.63
2018-09-24T08:19:50.356Z,61.36
2018-09-24T08:22:25.220Z,61.30
2018-09-24T08:24:59.959Z,59.36
2018-09-24T08:27:35.017Z,60.21
2018-09-24T08:30:10.231Z,60.23
2018-09-24T08:32:44.948Z,60.70
2018-09-24T08:35:19.511Z,58.18
2018-09-24T08:37:54.242Z,56.66
2018-09-24T08:40:29.032Z,56.02
2018-09-24T08:43:04.213Z,58.00
2018-09-24T08:45:38.936Z,56.13
2018-09-24T08:48:13.546Z,55.01
2018-09-24T08:50:48.179Z,54.98
2018-09-24T08:53:22.893Z,55.64
2018-09-24T08:55:57.699Z,57.05
2018-09-24T08:58:32.480Z,56.09
2018-09-24T09:01:07.329Z,57.67
2018-09-24T09:03:41.968Z,55.90
2018-09-24T09:06:16.666Z,56.22
2018-09-24T09:08:51.345Z,55.47
2018-09-24T09:11:26.024Z,56.54
2018-09-24T09:14:00.867Z,54.65
2018-09-24T09:16:35.581Z,54.45
2018-09-24T09:19:10.356Z,54.33
2018-09-24T09:21:45.237Z,52.76
2018-09-24T09:24:19.880Z,51.01
2018-09-24T09:26:54.701Z,52.63
2018-09-24T09:29:29.655Z,51.17
2018-09-24T09:32:04.374Z,51.53
2018-09-24T09:34:39.051Z,51.88
2018-09-24T09:37:13.816Z,51.56
2018-09-24T09:39:48.821Z,52.89
2018-09-24T09:42:23.372Z,50.37
2018-09-24T09:44:57.913Z,50.38
2018-09-24T09:47:32.727Z,50.59
2018-09-24T09:50:07.635Z,53.97
2018-09-24T09:52:42.274Z,52.23
2018-09-24T09:55:17.092Z,52.40
2018-09-24T09:57:51.862Z,54.10
2018-09-24T10:00:26.631Z,53.27
2018-09-24T10:03:01.484Z,51.11
2018-09-24T10:05:36.286Z,49.94
2018-09-24T10:08:11.214Z,50.96
2018-09-24T10:10:45.938Z,50.99
2018-09-24T10:13:21.163Z,49.67
2018-09-24T10:15:55.972Z,49.89
2018-09-24T10:18:30.901Z,50.22
2018-09-24T10:21:05.644Z,47.81
2018-09-24T10:23:40.380Z,47.94
2018-09-24T10:26:15.261Z,48.76
2018-09-24T10:28:50.025Z,51.29
2018-09-24T10:31:24.878Z,49.80
2018-09-24T10:34:00.013Z,48.97
2018-09-24T10:36:34.533Z,50.12
2018-09-24T10:39:11.419Z,49.08
2018-09-24T10:41:46.287Z,50.96
2018-09-24T10:44:21.400Z,49.96
2018-09-24T10:46:56.067Z,48.35
2018-09-24T10:49:30.730Z,48.38
2018-09-24T10:52:05.763Z,49.39
2018-09-24T10:54:40.351Z,50.56
2018-09-24T10:57:15.090Z,50.04
2018-09-24T10:59:49.797Z,50.46
2018-09-24T11:02:24.491Z,49.87
2018-09-24T11:04:59.140Z,50.49
2018-09-24T11:07:33.685Z,50.16
2018-09-24T11:10:08.802Z,49.88
2018-09-24T11:12:43.748Z,48.75
2018-09-24T11:15:18.491Z,49.12
2018-09-24T11:17:53.284Z,50.32
2018-09-24T11:20:28.183Z,50.79
2018-09-24T11:23:02.867Z,49.36
2018-09-24T11:25:37.575Z,50.56
2018-09-24T11:28:12.755Z,50.00
2018-09-24T11:30:47.523Z,48.88
2018-09-24T11:33:22.350Z,47.46
2018-09-24T11:35:57.596Z,48.44
2018-09-24T11:38:32.385Z,48.05
2018-09-24T11:41:06.973Z,48.44
2018-09-24T11:43:41.854Z,49.06
2018-09-24T11:46:16.595Z,49.15
2018-09-24T11:48:51.580Z,48.54
2018-09-24T11:51:26.481Z,49.67
2018-09-24T11:54:01.195Z,48.22
2018-09-24T11:56:35.896Z,47.41
2018-09-24T11:59:10.788Z,46.77
2018-09-24T12:01:45.558Z,46.43
2018-09-24T12:04:20.232Z,48.06
2018-09-24T12:06:54.963Z,47.78
2018-09-24T12:09:29.691Z,48.11
2018-09-24T12:12:04.252Z,46.38
2018-09-24T12:14:39.218Z,46.33
2018-09-24T12:17:13.912Z,45.30
2018-09-24T12:19:49.001Z,45.05
2018-09-24T12:22:23.863Z,45.95
2018-09-24T12:24:58.607Z,45.88
2018-09-24T12:27:33.491Z,45.77
2018-09-24T12:30:08.348Z,46.67
2018-09-24T12:32:43.340Z,47.60
2018-09-24T12:35:18.121Z,44.96
2018-09-24T12:37:52.848Z,45.39
2018-09-24T12:40:27.694Z,44.85
2018-09-24T12:43:02.462Z,45.23
2018-09-24T12:45:37.259Z,45.79
2018-09-24T12:48:12.258Z,45.33
2018-09-24T12:50:47.071Z,44.81
2018-09-24T12:53:21.656Z,46.05
2018-09-24T12:55:56.690Z,46.04
2018-09-24T12:58:31.609Z,45.23
2018-09-24T13:01:06.247Z,46.65
2018-09-24T13:03:40.930Z,45.87
2018-09-24T13:06:15.674Z,45.15
2018-09-24T13:08:50.496Z,46.05
2018-09-24T13:11:25.236Z,45.23
2018-09-24T13:13:59.972Z,44.45
2018-09-24T13:16:35.041Z,45.02
2018-09-24T13:19:09.829Z,46.00
2018-09-24T13:21:44.805Z,46.22
2018-09-24T13:24:19.447Z,46.97
2018-09-24T13:26:54.189Z,46.81
2018-09-24T13:29:29.364Z,46.09
2018-09-24T13:32:04.092Z,46.49
2018-09-24T13:34:38.936Z,45.46
2018-09-24T13:37:13.902Z,45.96
2018-09-24T13:39:48.535Z,46.23
2018-09-24T13:42:23.227Z,47.32
2018-09-24T13:44:58.059Z,47.44
2018-09-24T13:47:32.618Z,46.65
2018-09-24T13:50:07.471Z,45.38
2018-09-24T13:52:42.170Z,46.46
2018-09-24T13:55:16.927Z,46.37
2018-09-24T13:57:51.603Z,46.19
2018-09-24T14:00:26.348Z,46.37
2018-09-24T14:03:01.312Z,46.91
2018-09-24T14:05:36.123Z,46.46
2018-09-24T14:08:11.011Z,46.46
2018-09-24T14:10:45.715Z,46.77
2018-09-24T14:13:20.387Z,45.45
2018-09-24T14:15:55.407Z,44.48
2018-09-24T14:18:30.171Z,44.61
2018-09-24T14:21:05.196Z,46.45
2018-09-24T14:23:39.675Z,45.86
2018-09-24T14:26:14.327Z,46.79
2018-09-24T14:28:48.952Z,47.33
2018-09-24T14:31:23.819Z,46.60
2018-09-24T14:33:58.571Z,47.49
2018-09-24T14:36:33.506Z,46.79
2018-09-24T14:39:08.155Z,47.22
2018-09-24T14:41:43.064Z,46.92
2018-09-24T14:44:18.496Z,47.63
2018-09-24T14:46:53.163Z,47.06
2018-09-24T14:49:28.027Z,47.14
2018-09-24T14:52:02.735Z,48.06
2018-09-24T14:54:37.396Z,47.76
2018-09-24T14:57:12.480Z,48.06
2018-09-24T14:59:47.335Z,47.67
2018-09-24T15:02:22.075Z,48.03
2018-09-24T15:04:57.035Z,48.75
2018-09-24T15:07:31.831Z,48.43
2018-09-24T15:10:06.658Z,48.83
2018-09-24T15:12:41.864Z,48.25
2018-09-24T15:15:16.505Z,47.69
2018-09-24T15:17:51.075Z,47.64
2018-09-24T15:20:25.772Z,48.54
2018-09-24T15:23:00.530Z,47.87
2018-09-24T15:25:35.279Z,48.71
2018-09-24T15:28:10.136Z,47.05
2018-09-24T15:30:44.819Z,46.49
2018-09-24T15:33:19.600Z,46.42
2018-09-24T15:35:54.639Z,46.91
2018-09-24T15:38:29.326Z,46.47
2018-09-24T15:41:04.094Z,47.34
2018-09-24T15:43:39.108Z,47.51
2018-09-24T15:46:14.377Z,47.14
2018-09-24T15:48:49.152Z,46.55
2018-09-24T15:51:24.189Z,46.87
2018-09-24T15:53:59.191Z,46.91
2018-09-24T15:56:33.866Z,48.08
2018-09-24T15:59:08.600Z,46.91
2018-09-24T16:01:43.438Z,46.11
2018-09-24T16:04:18.071Z,47.01
2018-09-24T16:06:53.260Z,46.63
2018-09-24T16:09:28.178Z,45.87
2018-09-24T16:12:02.932Z,46.87
2018-09-24T16:14:37.848Z,46.14
2018-09-24T16:17:12.812Z,46.45
2018-09-24T16:19:47.712Z,46.78
2018-09-24T16:22:22.402Z,47.35
2018-09-24T16:24:57.235Z,47.39
2018-09-24T16:27:32.109Z,47.62
2018-09-24T16:30:06.808Z,48.03
2018-09-24T16:32:41.568Z,48.57
2018-09-24T16:35:16.108Z,46.73
2018-09-24T16:37:50.931Z,47.63
2018-09-24T16:40:25.948Z,48.22
2018-09-24T16:43:00.835Z,47.60
2018-09-24T16:45:35.642Z,48.17
2018-09-24T16:48:10.542Z,47.55
2018-09-24T16:50:45.390Z,48.42
2018-09-24T16:53:20.140Z,48.60
2018-09-24T16:55:54.744Z,49.16
2018-09-24T16:58:29.685Z,50.91
2018-09-24T17:01:04.374Z,50.39
2018-09-24T17:03:39.139Z,51.84
2018-09-24T17:06:14.063Z,50.67
2018-09-24T17:08:48.803Z,49.86
2018-09-24T17:11:23.649Z,51.10
2018-09-24T17:13:58.564Z,51.58
2018-09-24T17:16:33.450Z,51.75
2018-09-24T17:19:08.229Z,52.72
2018-09-24T17:21:42.835Z,51.84
2018-09-24T17:24:17.774Z,52.48
2018-09-24T17:26:52.650Z,52.09
2018-09-24T17:29:27.400Z,53.53
2018-09-24T17:32:02.271Z,54.74
2018-09-24T17:34:37.096Z,54.57
2018-09-24T17:37:12.148Z,55.92
2018-09-24T17:39:46.976Z,55.93
2018-09-24T17:42:21.721Z,54.20
2018-09-24T17:44:56.624Z,54.27
2018-09-24T17:47:39.248Z,54.88
2018-09-24T17:50:14.687Z,55.40
2018-09-24T17:52:49.356Z,57.15
2018-09-24T17:55:24.288Z,58.57
2018-09-24T17:57:58.947Z,58.70
2018-09-24T18:00:33.792Z,57.53
2018-09-24T18:03:08.481Z,57.28
2018-09-24T18:05:43.316Z,57.43
2018-09-24T18:08:18.407Z,57.58
2018-09-24T18:10:53.125Z,59.58
2018-09-24T18:13:27.947Z,58.83
2018-09-24T18:16:02.753Z,58.68
2018-09-24T18:18:37.444Z,59.36
2018-09-24T18:21:12.203Z,59.74
2018-09-24T18:23:47.015Z,60.48
2018-09-24T18:26:21.661Z,62.01
2018-09-24T18:28:57.025Z,62.44
2018-09-24T18:31:31.931Z,61.33
2018-09-24T18:34:06.902Z,61.70
2018-09-24T18:36:41.715Z,62.45
2018-09-24T18:39:16.511Z,63.08
2018-09-24T18:41:51.164Z,63.94
2018-09-24T18:44:25.843Z,63.02
2018-09-24T18:47:00.359Z,63.20
2018-09-24T18:49:35.108Z,63.06
2018-09-24T18:52:09.987Z,63.21
2018-09-24T18:54:44.784Z,63.43
2018-09-24T18:57:19.925Z,64.04
2018-09-24T18:59:54.761Z,63.48
2018-09-24T19:02:29.397Z,63.57
2018-09-24T19:05:04.184Z,63.96
2018-09-24T19:07:38.826Z,65.29
2018-09-24T19:10:14.370Z,64.62
2018-09-24T19:12:49.304Z,64.83
2018-09-24T19:15:29.843Z,65.23
2018-09-24T19:18:04.832Z,66.07
2018-09-24T19:20:39.820Z,66.99
2018-09-24T19:23:14.672Z,67.01
2018-09-24T19:25:49.901Z,66.69
2018-09-24T19:28:24.735Z,67.46
2018-09-24T19:31:00.131Z,68.42
2018-09-24T19:33:34.758Z,67.95
2018-09-24T19:36:09.920Z,67.67
2018-09-24T19:38:44.957Z,68.63
2018-09-24T19:41:19.802Z,68.99
2018-09-24T19:43:54.690Z,68.90
2018-09-24T19:46:29.463Z,69.51
2018-09-24T19:49:04.343Z,70.42
2018-09-24T19:51:39.080Z,69.49
2018-09-24T19:54:13.896Z,69.59
2018-09-24T19:56:48.858Z,69.43
2018-09-24T19:59:24.047Z,68.96
2018-09-24T20:01:59.033Z,69.75
2018-09-24T20:04:34.346Z,69.95
2018-09-24T20:07:09.211Z,69.31
2018-09-24T20:09:44.137Z,70.26
2018-09-24T20:12:19.995Z,69.35
2018-09-24T20:14:55.121Z,69.81
2018-09-24T20:17:30.154Z,69.52
2018-09-24T20:20:05.003Z,69.83
2018-09-24T20:22:39.951Z,70.26
2018-09-24T20:25:15.725Z,70.67
2018-09-24T20:27:50.701Z,70.54
2018-09-24T20:30:25.436Z,70.61
2018-09-24T20:33:01.635Z,71.11
2018-09-24T20:35:36.520Z,70.61
2018-09-24T20:38:11.254Z,71.05
2018-09-24T20:40:46.011Z,71.00
2018-09-24T20:43:23.637Z,71.04
2018-09-24T20:45:58.326Z,72.42
2018-09-24T20:48:34.668Z,71.60
2018-09-24T20:51:09.471Z,72.63
2018-09-24T20:53:43.992Z,72.92
2018-09-24T20:56:19.051Z,72.89
2018-09-24T20:58:56.515Z,72.64
2018-09-24T21:01:31.211Z,72.77
2018-09-24T21:04:06.066Z,73.70
2018-09-24T21:06:40.891Z,73.58
2018-09-24T21:09:15.693Z,74.19
2018-09-24T21:11:50.944Z,73.80
2018-09-24T21:14:26.056Z,74.37
2018-09-24T21:17:00.661Z,73.79
2018-09-24T21:19:35.472Z,73.58
2018-09-24T21:22:10.804Z,73.41
2018-09-24T21:24:45.527Z,73.25
2018-09-24T21:27:20.257Z,73.55
2018-09-24T21:29:54.932Z,73.42
2018-09-24T21:32:29.870Z,73.18
2018-09-24T21:35:04.846Z,73.68
2018-09-24T21:37:40.491Z,74.05
2018-09-24T21:40:15.234Z,74.07
2018-09-24T21:42:50.191Z,74.12
2018-09-24T21:45:24.803Z,74.11
2018-09-24T21:48:00.995Z,73.22
2018-09-24T21:50:35.812Z,74.23
2018-09-24T21:53:10.451Z,74.07
2018-09-24T21:55:45.119Z,74.50
2018-09-24T21:58:20.335Z,74.39
2018-09-24T22:00:55.843Z,74.13
2018-09-24T22:03:30.642Z,74.87
2018-09-24T22:06:07.879Z,75.23
2018-09-24T22:08:42.610Z,74.46
2018-09-24T22:11:17.361Z,75.78
2018-09-24T22:13:52.247Z,75.10
2018-09-24T22:16:27.107Z,75.51
2018-09-24T22:19:01.760Z,75.31
2018-09-24T22:21:36.711Z,75.96
2018-09-24T22:24:11.567Z,76.85
2018-09-24T22:26:46.320Z,77.16
2018-09-24T22:29:21.019Z,75.87
2018-09-24T22:31:55.699Z,76.33
2018-09-24T22:34:30.459Z,76.88
2018-09-24T22:37:05.020Z,77.11
2018-09-24T22:39:39.598Z,75.24
2018-09-24T22:42:14.963Z,75.69
2018-09-24T22:44:49.866Z,75.89
2018-09-24T22:47:24.576Z,75.64
2018-09-24T22:49:59.354Z,76.15
2018-09-24T22:52:34.115Z,77.06
2018-09-24T22:55:09.003Z,76.38
2018-09-24T22:57:43.804Z,76.99
2018-09-24T23:00:18.616Z,77.25
2018-09-24T23:02:53.388Z,77.98
2018-09-24T23:05:28.239Z,77.54
2018-09-24T23:08:03.067Z,77.40
2018-09-24T23:10:37.854Z,77.15
2018-09-24T23:13:12.545Z,77.30
2018-09-24T23:15:47.159Z,77.09
2018-09-24T23:18:21.823Z,77.15
2018-09-24T23:20:56.589Z,78.20
2018-09-24T23:23:31.519Z,78.15
2018-09-24T23:26:06.271Z,77.37
2018-09-24T23:28:41.090Z,78.25
2018-09-24T23:31:15.934Z,77.26
2018-09-24T23:33:50.660Z,77.94
2018-09-24T23:36:25.547Z,77.67
2018-09-24T23:39:00.111Z,77.09
2018-09-24T23:41:34.908Z,77.46
2018-09-24T23:44:09.671Z,77.34
2018-09-24T23:46:44.477Z,76.64
2018-09-24T23:49:19.357Z,76.61
2018-09-24T23:51:54.220Z,77.16
2018-09-24T23:54:28.969Z,76.93
2018-09-24T23:57:03.584Z,77.20
2018-09-24T23:59:38.266Z,78.30
